Time;durP1;ratioP1;P1;durP2;ratioP2;P2;SDS_P1;SDS_P2;PMS_P1;PMS_P2;Temp;Humidity;BMP_temperature;BMP_pressure;BME280_temperature;BME280_humidity;BME280_pressure;Samples;Min_cycle;Max_cycle;Signal;HPM_P1;HPM_P2
2023/12/15 00:01:42;;;;;;;2.70;1.60;;;17.50;66.10;;;;;;4870645;29;20198;-86
2023/12/15 00:04:08;;;;;;;4.63;1.42;;;17.50;66.50;;;;;;4870276;29;20241;-86
2023/12/15 00:06:34;;;;;;;2.33;1.45;;;17.50;66.20;;;;;;4918249;29;20171;-85
2023/12/15 00:09:00;;;;;;;2.80;1.40;;;17.50;66.00;;;;;;4917803;29;20234;-86
2023/12/15 00:11:26;;;;;;;2.97;1.40;;;17.50;66.20;;;;;;4901422;29;20190;-85
2023/12/15 00:14:01;;;;;;;1.77;1.40;;;17.50;66.10;;;;;;4885555;29;20253;-86
2023/12/15 00:16:27;;;;;;;2.50;1.73;;;17.50;65.70;;;;;;4907893;29;20600;-85
2023/12/15 00:18:54;;;;;;;2.30;1.50;;;17.40;66.30;;;;;;4917176;29;20667;-86
2023/12/15 00:21:24;;;;;;;2.75;1.40;;;17.40;65.80;;;;;;4917556;29;20198;-85
2023/12/15 00:23:57;;;;;;;5.18;1.88;;;17.40;66.30;;;;;;4885043;29;20186;-86
2023/12/15 00:26:23;;;;;;;1.20;1.10;;;17.40;65.90;;;;;;4900512;29;20206;-86
2023/12/15 00:33:40;;;;;;;2.38;1.30;;;17.40;66.10;;;;;;4991449;23;20271;-86
2023/12/15 00:36:09;;;;;;;2.08;1.60;;;17.40;66.00;;;;;;4925197;29;20161;-86
2023/12/15 00:38:40;;;;;;;1.80;1.30;;;17.40;65.90;;;;;;4943820;29;20168;-86
2023/12/15 00:41:10;;;;;;;1.73;1.50;;;17.50;65.80;;;;;;4943996;29;20267;-86
2023/12/15 00:43:41;;;;;;;2.55;1.38;;;17.40;65.60;;;;;;4927602;29;20185;-86
2023/12/15 00:46:07;;;;;;;2.10;1.60;;;17.50;66.00;;;;;;4911156;29;20177;-85
2023/12/15 00:48:39;;;;;;;3.33;1.42;;;17.40;65.70;;;;;;4927828;29;20674;-86
2023/12/15 00:51:07;;;;;;;2.40;1.50;;;17.50;65.70;;;;;;4911621;29;20688;-86
2023/12/15 00:53:33;;;;;;;2.42;1.27;;;17.50;65.80;;;;;;4944520;29;20256;-86
2023/12/15 00:56:00;;;;;;;2.13;1.40;;;17.40;65.60;;;;;;4927845;29;20579;-86
2023/12/15 00:58:26;;;;;;;2.22;1.40;;;17.40;65.80;;;;;;4927735;29;20173;-86
2023/12/15 01:00:56;;;;;;;3.28;1.52;;;17.40;65.90;;;;;;4926871;29;20216;-86
2023/12/15 01:03:27;;;;;;;1.73;1.33;;;17.50;66.20;;;;;;4926753;29;20185;-86
2023/12/15 01:08:24;;;;;;;2.60;1.50;;;17.40;65.90;;;;;;4990761;23;20236;-86
2023/12/15 01:10:50;;;;;;;1.95;1.60;;;17.30;65.90;;;;;;4958011;23;20683;-85
2023/12/15 01:13:16;;;;;;;3.42;1.95;;;17.30;66.10;;;;;;4974000;28;20177;-86
2023/12/15 01:15:47;;;;;;;2.03;1.60;;;17.30;66.20;;;;;;4942247;29;20587;-85
2023/12/15 01:18:13;;;;;;;2.17;1.60;;;17.30;65.80;;;;;;4878809;29;20644;-86
2023/12/15 01:20:44;;;;;;;2.45;1.33;;;17.40;66.10;;;;;;4958514;28;20276;-86
2023/12/15 01:23:10;;;;;;;2.13;1.20;;;17.30;65.90;;;;;;4925092;29;20185;-86
2023/12/15 01:25:36;;;;;;;1.80;1.60;;;17.40;66.10;;;;;;4942228;29;20188;-85
2023/12/15 01:28:06;;;;;;;2.70;1.75;;;17.30;65.80;;;;;;4958405;29;20165;-86
2023/12/15 01:30:32;;;;;;;2.35;1.48;;;17.30;66.10;;;;;;4926087;29;20193;-86
2023/12/15 01:33:03;;;;;;;2.53;1.70;;;17.40;65.50;;;;;;4926452;29;20161;-86
2023/12/15 01:35:34;;;;;;;3.35;1.67;;;17.40;65.80;;;;;;4960039;29;20177;-85
2023/12/15 01:37:59;;;;;;;1.50;1.30;;;17.30;65.60;;;;;;4979593;23;20237;-85
2023/12/15 01:42:59;;;;;;;2.63;1.52;;;17.30;65.80;;;;;;5143548;23;20256;-86
2023/12/15 01:45:25;;;;;;;2.75;1.38;;;17.40;65.50;;;;;;4927055;29;20233;-86
2023/12/15 01:47:57;;;;;;;2.00;1.40;;;17.40;65.10;;;;;;4925895;29;20200;-86
2023/12/15 01:50:27;;;;;;;2.38;1.38;;;17.40;65.00;;;;;;4942623;29;20170;-86
2023/12/15 01:52:58;;;;;;;2.55;1.50;;;17.30;65.40;;;;;;4925403;29;20185;-86
2023/12/15 01:55:24;;;;;;;3.25;1.42;;;17.40;65.60;;;;;;4939392;29;20196;-86
2023/12/15 01:57:53;;;;;;;1.60;1.50;;;17.40;65.30;;;;;;4926434;29;20170;-86
2023/12/15 02:00:23;;;;;;;3.92;1.38;;;17.40;65.20;;;;;;4941671;29;20193;-86
2023/12/15 02:02:50;;;;;;;3.05;1.50;;;17.30;65.50;;;;;;4919137;29;20189;-86
2023/12/15 02:05:16;;;;;;;2.35;1.58;;;17.30;65.20;;;;;;4957660;29;20161;-85
2023/12/15 02:07:44;;;;;;;4.18;1.63;;;17.30;65.40;;;;;;4941876;29;20154;-86
2023/12/15 02:10:14;;;;;;;2.75;1.48;;;17.30;64.90;;;;;;4893523;29;20207;-86
2023/12/15 02:12:40;;;;;;;1.90;1.40;;;17.30;65.10;;;;;;4909173;29;20205;-85
2023/12/15 02:15:09;;;;;;;1.52;1.40;;;17.30;65.20;;;;;;4943140;29;20174;-86
2023/12/15 02:17:35;;;;;;;1.85;1.50;;;17.40;64.90;;;;;;5031746;23;20255;-86
2023/12/15 02:20:04;;;;;;;2.30;1.60;;;17.40;65.40;;;;;;4925417;29;20272;-86
2023/12/15 02:22:33;;;;;;;2.63;1.63;;;17.40;65.30;;;;;;4925915;29;20170;-86
2023/12/15 02:25:00;;;;;;;2.42;1.50;;;17.40;64.80;;;;;;4929101;29;20169;-87
2023/12/15 02:27:28;;;;;;;2.03;1.45;;;17.40;65.10;;;;;;4943995;29;20552;-86
2023/12/15 02:29:58;;;;;;;2.20;1.45;;;17.30;65.00;;;;;;4939972;29;20185;-86
2023/12/15 02:32:26;;;;;;;2.05;1.63;;;17.30;66.00;;;;;;5030944;23;20236;-86
2023/12/15 02:34:52;;;;;;;2.15;1.40;;;17.30;65.40;;;;;;4909114;29;20161;-86
2023/12/15 02:37:23;;;;;;;3.33;1.80;;;17.30;65.10;;;;;;4924638;29;20219;-85
2023/12/15 02:39:49;;;;;;;1.30;1.20;;;17.40;65.10;;;;;;4892412;29;20587;-86
2023/12/15 02:42:19;;;;;;;2.90;1.50;;;17.30;64.60;;;;;;4924775;29;20189;-85
2023/12/15 02:44:46;;;;;;;1.95;1.50;;;17.40;64.90;;;;;;4907982;29;20873;-86
2023/12/15 02:47:12;;;;;;;2.00;1.50;;;17.30;65.00;;;;;;4924763;29;20166;-86
2023/12/15 02:49:42;;;;;;;2.47;1.48;;;17.30;65.10;;;;;;4925118;29;20712;-86
2023/12/15 02:52:14;;;;;;;1.77;1.20;;;17.30;64.80;;;;;;4914511;28;20267;-86
2023/12/15 02:54:40;;;;;;;1.95;1.50;;;17.30;64.70;;;;;;4943020;28;20669;-86
2023/12/15 02:57:07;;;;;;;2.72;1.58;;;17.30;65.10;;;;;;4937262;29;20268;-86
2023/12/15 03:01:58;;;;;;;1.77;1.48;;;17.30;64.30;;;;;;5066268;23;20786;-86
2023/12/15 03:04:26;;;;;;;2.03;1.30;;;17.30;64.80;;;;;;4954056;23;20248;-86
2023/12/15 03:06:54;;;;;;;3.58;1.63;;;17.30;64.60;;;;;;4891668;29;20167;-85
2023/12/15 03:09:26;;;;;;;1.92;1.40;;;17.30;65.20;;;;;;4891328;29;20177;-85
2023/12/15 03:11:54;;;;;;;2.17;1.50;;;17.30;64.70;;;;;;4906101;29;20198;-86
2023/12/15 03:16:47;;;;;;;2.75;1.52;;;17.30;65.10;;;;;;5080027;23;20324;-85
2023/12/15 03:19:16;;;;;;;1.90;1.40;;;17.30;64.90;;;;;;4998703;23;20325;-86
2023/12/15 03:21:43;;;;;;;3.05;1.65;;;17.30;64.90;;;;;;4921847;29;20554;-86
2023/12/15 03:24:09;;;;;;;2.05;1.50;;;17.30;65.10;;;;;;4921423;29;20190;-86
2023/12/15 03:29:02;;;;;;;2.50;1.50;;;17.30;65.00;;;;;;4953911;23;20241;-86
2023/12/15 03:31:28;;;;;;;1.98;1.60;;;17.30;64.70;;;;;;4924453;29;20616;-86
2023/12/15 03:33:54;;;;;;;2.47;1.70;;;17.30;64.90;;;;;;4924236;29;20157;-85
2023/12/15 03:36:22;;;;;;;1.70;1.42;;;17.30;65.10;;;;;;4924754;29;20169;-86
2023/12/15 03:38:49;;;;;;;1.60;1.40;;;17.30;64.70;;;;;;4940811;29;20161;-85
2023/12/15 03:41:19;;;;;;;2.60;1.40;;;17.20;65.10;;;;;;4924655;29;20260;-86
2023/12/15 03:46:15;;;;;;;2.15;1.60;;;17.30;65.20;;;;;;4993597;23;20692;-86
2023/12/15 03:48:41;;;;;;;1.85;1.50;;;17.30;64.80;;;;;;4925010;29;20608;-86
2023/12/15 03:51:11;;;;;;;2.17;1.60;;;17.20;64.90;;;;;;4924739;29;20188;-85
2023/12/15 03:53:37;;;;;;;1.73;1.50;;;17.20;64.60;;;;;;4940170;29;20173;-85
2023/12/15 03:56:05;;;;;;;1.83;1.40;;;17.20;64.70;;;;;;4924679;29;20169;-86
2023/12/15 03:58:32;;;;;;;1.70;1.40;;;17.30;64.60;;;;;;4940107;29;20514;-86
2023/12/15 04:01:00;;;;;;;1.95;1.45;;;17.20;64.90;;;;;;4940019;29;20209;-85
2023/12/15 04:03:29;;;;;;;2.72;1.45;;;17.20;65.00;;;;;;4920508;29;20197;-86
2023/12/15 04:06:00;;;;;;;3.25;1.55;;;17.30;65.00;;;;;;4917212;29;20233;-86
2023/12/15 04:08:26;;;;;;;2.25;1.75;;;17.20;64.90;;;;;;4889368;29;20204;-85
2023/12/15 04:10:57;;;;;;;2.38;1.48;;;17.20;65.10;;;;;;4905721;29;20178;-86
2023/12/15 04:13:23;;;;;;;1.60;1.27;;;17.20;65.10;;;;;;4925077;29;20307;-85
2023/12/15 04:15:49;;;;;;;1.98;1.50;;;17.20;65.20;;;;;;4909504;29;20170;-86
2023/12/15 04:18:15;;;;;;;1.83;1.50;;;17.20;64.90;;;;;;4910929;29;20177;-85
2023/12/15 04:20:52;;;;;;;2.42;1.45;;;17.10;64.80;;;;;;4928839;29;20304;-86
2023/12/15 04:23:23;;;;;;;1.45;1.35;;;17.20;65.20;;;;;;4928650;29;20185;-85
2023/12/15 04:25:48;;;;;;;1.63;1.30;;;17.10;65.20;;;;;;4928221;29;20176;-85
2023/12/15 04:28:16;;;;;;;2.10;1.50;;;17.20;65.00;;;;;;4927662;29;20529;-86
2023/12/15 04:30:46;;;;;;;2.67;1.60;;;17.10;64.60;;;;;;4927553;29;20170;-85
2023/12/15 04:33:20;;;;;;;2.15;1.50;;;17.20;64.80;;;;;;4895034;29;20207;-85
2023/12/15 04:35:50;;;;;;;2.38;1.40;;;17.20;64.90;;;;;;4929339;29;20714;-85
2023/12/15 04:38:16;;;;;;;1.77;1.50;;;17.20;64.80;;;;;;4926626;29;20260;-86
2023/12/15 04:40:47;;;;;;;1.88;1.40;;;17.20;64.90;;;;;;4927982;29;20232;-86
2023/12/15 04:43:17;;;;;;;1.20;1.10;;;17.20;65.00;;;;;;4926884;29;20193;-87
2023/12/15 04:45:45;;;;;;;1.77;1.30;;;17.10;64.70;;;;;;4896737;28;20554;-87
2023/12/15 04:48:13;;;;;;;1.98;1.45;;;17.20;65.20;;;;;;4962953;28;20173;-86
2023/12/15 04:50:41;;;;;;;2.13;1.42;;;17.20;65.10;;;;;;4963251;28;20169;-86
2023/12/15 04:53:08;;;;;;;1.60;1.40;;;17.20;64.90;;;;;;4962706;28;20603;-86
2023/12/15 04:55:34;;;;;;;2.75;1.60;;;17.10;64.70;;;;;;4904459;29;20186;-86
2023/12/15 04:58:07;;;;;;;2.22;1.58;;;17.10;65.00;;;;;;4867833;29;20248;-86
2023/12/15 05:00:33;;;;;;;1.67;1.30;;;17.10;64.90;;;;;;4861857;29;20303;-86
2023/12/15 05:02:59;;;;;;;1.85;1.45;;;17.10;65.00;;;;;;4851794;29;20729;-86
2023/12/15 05:05:32;;;;;;;1.95;1.27;;;17.10;64.90;;;;;;4836841;29;20631;-86
2023/12/15 05:07:58;;;;;;;2.53;1.67;;;17.10;65.10;;;;;;4864047;29;20244;-86
2023/12/15 05:10:25;;;;;;;2.00;1.60;;;17.10;65.00;;;;;;4863860;29;20192;-84
2023/12/15 05:12:50;;;;;;;1.58;1.38;;;17.10;64.80;;;;;;4865681;29;20192;-84
2023/12/15 05:15:19;;;;;;;1.77;1.38;;;17.10;64.60;;;;;;4847185;29;20176;-85
2023/12/15 05:17:49;;;;;;;4.13;1.65;;;17.10;64.90;;;;;;4858103;29;20184;-84
2023/12/15 05:20:20;;;;;;;2.42;1.50;;;17.10;64.60;;;;;;4805516;29;20264;-85
2023/12/15 05:22:47;;;;;;;2.15;1.40;;;17.10;65.00;;;;;;4826766;29;20691;-84
2023/12/15 05:25:15;;;;;;;3.15;1.50;;;17.10;65.00;;;;;;4862516;29;20184;-85
2023/12/15 05:27:41;;;;;;;2.22;1.50;;;17.10;64.70;;;;;;4856605;29;20169;-85
2023/12/15 05:30:07;;;;;;;1.48;1.27;;;17.10;65.20;;;;;;4884463;29;20693;-85
2023/12/15 05:32:33;;;;;;;2.03;1.63;;;17.10;65.00;;;;;;4891083;29;20607;-85
2023/12/15 05:35:00;;;;;;;2.47;1.73;;;17.10;64.80;;;;;;4899850;29;20167;-86
2023/12/15 05:37:31;;;;;;;2.28;1.48;;;17.10;64.70;;;;;;4910093;29;20194;-85
2023/12/15 05:39:58;;;;;;;3.45;1.45;;;17.10;64.90;;;;;;4935795;29;20213;-85
2023/12/15 05:42:26;;;;;;;1.60;1.50;;;17.10;64.70;;;;;;4920120;29;20194;-85
2023/12/15 05:47:26;;;;;;;2.03;1.45;;;17.10;64.40;;;;;;5028961;23;20233;-85
2023/12/15 05:49:56;;;;;;;2.67;1.77;;;17.10;64.70;;;;;;4990157;23;20229;-85
2023/12/15 05:52:27;;;;;;;2.10;1.45;;;17.10;64.90;;;;;;4909576;29;20228;-85
2023/12/15 05:54:58;;;;;;;2.58;1.65;;;17.10;64.90;;;;;;4909746;29;20181;-84
2023/12/15 05:57:25;;;;;;;2.55;1.42;;;17.10;64.50;;;;;;4941156;29;20288;-85
2023/12/15 05:59:52;;;;;;;2.00;1.48;;;17.10;64.70;;;;;;4941728;29;20273;-85
2023/12/15 06:02:18;;;;;;;2.35;1.55;;;17.10;64.70;;;;;;4925554;29;20173;-85
2023/12/15 06:04:45;;;;;;;2.45;1.50;;;17.10;64.60;;;;;;4956932;29;20160;-84
2023/12/15 06:07:16;;;;;;;2.55;1.45;;;17.10;64.60;;;;;;4956647;29;20261;-85
2023/12/15 06:09:43;;;;;;;1.83;1.40;;;17.10;64.80;;;;;;4910256;29;20221;-85
2023/12/15 06:12:10;;;;;;;2.03;1.48;;;17.10;64.30;;;;;;4959460;29;20293;-85
2023/12/15 06:14:39;;;;;;;2.22;1.30;;;17.10;64.30;;;;;;4956735;29;20161;-85
2023/12/15 06:17:10;;;;;;;2.95;1.60;;;17.10;64.60;;;;;;4909572;29;20647;-85
2023/12/15 06:19:42;;;;;;;1.83;1.50;;;17.00;64.60;;;;;;4959016;29;20170;-86
2023/12/15 06:22:17;;;;;;;1.98;1.60;;;17.10;64.50;;;;;;4941946;29;20192;-85
2023/12/15 06:24:47;;;;;;;1.92;1.52;;;17.00;64.70;;;;;;4911131;29;20184;-86
2023/12/15 06:27:20;;;;;;;2.17;1.40;;;17.00;64.50;;;;;;4911100;29;20185;-86
2023/12/15 06:29:53;;;;;;;1.77;1.38;;;17.00;64.60;;;;;;4927036;29;20189;-86
2023/12/15 06:32:23;;;;;;;1.50;1.40;;;17.00;64.70;;;;;;4960053;29;20173;-86
2023/12/15 06:34:50;;;;;;;1.88;1.50;;;17.10;64.70;;;;;;4926062;29;20182;-85
2023/12/15 06:37:24;;;;;;;1.85;1.45;;;17.10;64.90;;;;;;4959630;29;20157;-85
2023/12/15 06:39:50;;;;;;;2.05;1.73;;;17.00;64.10;;;;;;4957023;29;20267;-85
2023/12/15 06:42:17;;;;;;;2.20;1.67;;;17.10;64.20;;;;;;4957780;29;20193;-85
2023/12/15 06:44:43;;;;;;;1.85;1.27;;;17.00;64.50;;;;;;4958557;29;20178;-86
2023/12/15 06:47:14;;;;;;;3.33;1.30;;;17.00;64.60;;;;;;4956776;29;20545;-85
2023/12/15 06:49:44;;;;;;;2.28;1.60;;;17.00;64.50;;;;;;4937595;29;20232;-85
2023/12/15 06:52:10;;;;;;;1.55;1.35;;;17.00;64.10;;;;;;4937436;29;20272;-85
2023/12/15 06:54:41;;;;;;;1.80;1.40;;;17.00;64.50;;;;;;4938591;29;20181;-85
2023/12/15 06:57:12;;;;;;;3.85;1.45;;;17.00;64.30;;;;;;4937081;29;20663;-85
2023/12/15 06:59:38;;;;;;;2.92;1.45;;;17.10;63.70;;;;;;4922043;29;20324;-85
2023/12/15 07:02:03;;;;;;;2.60;1.60;;;17.10;64.10;;;;;;4939580;29;20244;-85
2023/12/15 07:04:29;;;;;;;2.78;1.55;;;17.00;63.90;;;;;;4939999;29;20211;-85
2023/12/15 07:07:00;;;;;;;2.78;1.58;;;17.10;63.80;;;;;;4939856;29;20193;-86
2023/12/15 07:09:26;;;;;;;3.80;1.50;;;17.10;64.40;;;;;;4922946;29;20519;-85
2023/12/15 07:11:54;;;;;;;2.08;1.40;;;17.00;64.00;;;;;;4939259;29;20234;-86
2023/12/15 07:14:25;;;;;;;1.77;1.30;;;17.00;64.00;;;;;;4923222;29;20181;-86
2023/12/15 07:16:55;;;;;;;2.13;1.50;;;17.10;63.70;;;;;;4923201;29;20189;-85
2023/12/15 07:19:22;;;;;;;1.52;1.20;;;17.10;63.40;;;;;;4938158;29;20185;-85
2023/12/15 07:21:50;;;;;;;1.42;1.30;;;17.10;62.30;;;;;;4938004;29;20507;-85
2023/12/15 07:24:18;;;;;;;1.85;1.42;;;17.10;63.30;;;;;;4937857;29;20211;-85
2023/12/15 07:26:44;;;;;;;2.45;1.60;;;17.10;62.80;;;;;;4936827;29;20220;-85
2023/12/15 07:29:10;;;;;;;1.40;1.30;;;17.10;62.80;;;;;;4937194;29;20169;-85
2023/12/15 07:31:36;;;;;;;3.75;1.55;;;17.10;63.70;;;;;;4922272;29;20173;-86
2023/12/15 07:34:02;;;;;;;1.77;1.33;;;17.10;63.10;;;;;;4938311;29;20208;-85
2023/12/15 07:36:28;;;;;;;1.92;1.60;;;17.10;62.50;;;;;;4937588;29;20624;-85
2023/12/15 07:38:54;;;;;;;2.60;1.58;;;17.10;63.30;;;;;;4921787;29;20193;-85
2023/12/15 07:41:21;;;;;;;2.00;1.40;;;17.20;62.70;;;;;;4936947;29;20209;-85
2023/12/15 07:43:47;;;;;;;2.58;1.40;;;17.10;63.20;;;;;;4938218;29;20552;-84
2023/12/15 07:46:16;;;;;;;1.52;1.30;;;17.10;62.80;;;;;;4921650;29;20177;-85
2023/12/15 07:48:42;;;;;;;3.85;1.75;;;17.10;62.90;;;;;;4923305;29;20221;-85
2023/12/15 07:51:17;;;;;;;2.90;1.40;;;17.10;63.20;;;;;;4917351;29;20178;-84
2023/12/15 07:53:43;;;;;;;2.03;1.60;;;17.20;61.90;;;;;;4949625;29;20172;-85
2023/12/15 07:56:17;;;;;;;2.35;1.60;;;17.10;62.30;;;;;;4950429;29;20614;-85
2023/12/15 07:58:44;;;;;;;2.45;1.40;;;17.10;62.70;;;;;;4950751;29;20154;-86
2023/12/15 08:01:09;;;;;;;1.73;1.40;;;17.10;62.50;;;;;;5260226;23;20728;-86
2023/12/15 08:03:35;;;;;;;1.92;1.58;;;17.10;62.00;;;;;;4923350;29;20168;-85
2023/12/15 08:06:03;;;;;;;3.05;1.67;;;17.20;62.30;;;;;;4939090;29;20179;-86
2023/12/15 08:08:34;;;;;;;2.67;1.60;;;17.20;62.10;;;;;;4939845;29;20158;-85
2023/12/15 08:11:00;;;;;;;1.50;1.40;;;17.20;62.10;;;;;;4907222;29;20252;-86
2023/12/15 08:13:28;;;;;;;1.67;1.50;;;17.20;61.10;;;;;;4922753;29;20166;-85
2023/12/15 08:15:59;;;;;;;2.47;1.50;;;17.20;61.80;;;;;;4922090;29;20185;-85
2023/12/15 08:18:26;;;;;;;2.00;1.60;;;17.20;62.10;;;;;;5340784;23;20292;-85
2023/12/15 08:20:52;;;;;;;1.85;1.40;;;17.20;62.10;;;;;;4923107;29;20268;-85
2023/12/15 08:23:19;;;;;;;6.30;1.70;;;17.20;61.80;;;;;;4923475;29;20639;-86
2023/12/15 08:25:45;;;;;;;1.65;1.40;;;17.20;62.40;;;;;;4923180;29;20565;-85
2023/12/15 08:28:11;;;;;;;1.70;1.45;;;17.20;61.30;;;;;;4953574;29;20209;-85
2023/12/15 08:30:41;;;;;;;2.75;1.58;;;17.20;62.10;;;;;;4922194;29;20177;-85
2023/12/15 08:33:08;;;;;;;1.83;1.50;;;17.30;60.70;;;;;;4937290;29;20150;-85
2023/12/15 08:35:39;;;;;;;2.42;1.50;;;17.20;61.90;;;;;;4938277;29;20165;-84
2023/12/15 08:38:06;;;;;;;1.83;1.38;;;17.20;62.10;;;;;;4940017;29;20189;-85
2023/12/15 08:40:32;;;;;;;1.70;1.45;;;17.20;61.90;;;;;;4924397;29;20288;-85
2023/12/15 08:42:58;;;;;;;1.58;1.25;;;17.20;61.40;;;;;;4923773;29;20248;-85
2023/12/15 08:45:27;;;;;;;2.67;1.33;;;17.30;61.80;;;;;;4922992;29;20189;-84
2023/12/15 08:47:54;;;;;;;2.22;1.60;;;17.20;61.40;;;;;;4940183;29;21014;-85
2023/12/15 08:50:21;;;;;;;1.98;1.50;;;17.30;61.60;;;;;;4923703;29;20710;-85
2023/12/15 08:57:49;;;;;;;1.63;1.40;;;17.30;61.20;;;;;;5649883;23;20236;-85
2023/12/15 09:00:15;;;;;;;1.98;1.38;;;17.30;61.10;;;;;;4926551;29;20205;-84
2023/12/15 09:02:41;;;;;;;2.38;1.60;;;17.30;62.00;;;;;;4942549;29;20191;-85
2023/12/15 09:05:07;;;;;;;1.85;1.35;;;17.20;60.90;;;;;;4976046;23;20301;-85
2023/12/15 09:07:39;;;;;;;1.75;1.50;;;17.20;60.60;;;;;;4939798;29;20198;-85
2023/12/15 09:10:08;;;;;;;1.25;1.15;;;17.20;61.40;;;;;;4906123;29;20182;-85
2023/12/15 09:12:35;;;;;;;2.50;1.38;;;17.30;60.90;;;;;;4939620;29;20527;-85
2023/12/15 09:15:02;;;;;;;1.60;1.33;;;17.30;61.10;;;;;;4925079;29;20155;-85
2023/12/15 09:17:29;;;;;;;1.80;1.20;;;17.30;61.00;;;;;;4925507;29;20181;-85
2023/12/15 09:19:56;;;;;;;1.75;1.40;;;17.20;61.10;;;;;;4924472;29;20201;-85
2023/12/15 09:22:23;;;;;;;3.47;1.60;;;17.30;61.80;;;;;;4940399;29;20657;-85
2023/12/15 09:24:52;;;;;;;3.13;1.40;;;17.30;62.00;;;;;;4940498;29;20170;-84
2023/12/15 09:27:26;;;;;;;2.30;1.20;;;17.30;62.10;;;;;;4892473;29;20269;-85
2023/12/15 09:29:56;;;;;;;1.33;1.20;;;17.30;61.30;;;;;;4892746;29;20217;-85
2023/12/15 09:32:25;;;;;;;1.75;1.40;;;17.30;62.00;;;;;;4891490;29;20552;-84
2023/12/15 09:35:00;;;;;;;1.98;1.52;;;17.30;60.70;;;;;;4929707;29;20162;-85
2023/12/15 09:37:30;;;;;;;1.35;1.08;;;17.30;59.80;;;;;;4910282;29;20185;-84
2023/12/15 09:39:59;;;;;;;2.08;1.48;;;17.30;61.50;;;;;;4900132;29;20206;-85
2023/12/15 09:42:30;;;;;;;2.35;1.60;;;17.30;61.50;;;;;;4915873;29;20616;-85
2023/12/15 09:44:56;;;;;;;1.60;1.30;;;17.30;61.10;;;;;;4948328;29;20803;-85
2023/12/15 09:47:26;;;;;;;1.50;1.27;;;17.20;61.90;;;;;;4946534;29;20170;-85
2023/12/15 09:49:52;;;;;;;1.90;1.38;;;17.20;62.40;;;;;;4930865;29;20178;-85
2023/12/15 09:52:24;;;;;;;3.00;1.77;;;17.30;61.50;;;;;;4933909;29;20246;-85
2023/12/15 09:54:59;;;;;;;1.70;1.38;;;17.30;61.10;;;;;;4891319;29;20199;-85
2023/12/15 09:57:24;;;;;;;2.97;1.20;;;17.30;60.20;;;;;;4857363;29;20570;-86
2023/12/15 09:59:50;;;;;;;1.90;1.42;;;17.40;60.20;;;;;;4880845;29;20211;-83
2023/12/15 10:02:19;;;;;;;1.30;1.20;;;17.40;59.70;;;;;;4879422;29;20164;-83
2023/12/15 10:04:45;;;;;;;2.42;1.35;;;17.40;59.80;;;;;;4847986;29;20236;-84
2023/12/15 10:07:13;;;;;;;2.40;1.55;;;17.40;59.90;;;;;;4878737;29;20192;-85
2023/12/15 10:09:41;;;;;;;2.42;1.65;;;17.40;60.30;;;;;;4846578;29;20288;-85
2023/12/15 10:12:12;;;;;;;1.50;1.30;;;17.30;60.00;;;;;;4846332;29;20674;-84
2023/12/15 10:14:38;;;;;;;1.33;1.23;;;17.40;60.90;;;;;;4863814;29;20290;-83
2023/12/15 10:17:09;;;;;;;2.03;1.58;;;17.30;60.20;;;;;;4879094;29;20754;-82
2023/12/15 10:19:34;;;;;;;2.00;1.50;;;17.40;60.10;;;;;;4878722;29;20194;-85
2023/12/15 10:22:04;;;;;;;1.70;1.40;;;17.30;60.50;;;;;;4866751;29;20176;-83
2023/12/15 10:24:34;;;;;;;1.75;1.48;;;17.30;60.20;;;;;;4881728;29;20166;-85
2023/12/15 10:27:07;;;;;;;1.58;1.35;;;17.30;60.50;;;;;;4909032;29;20209;-82
2023/12/15 10:29:37;;;;;;;1.73;1.38;;;17.30;60.30;;;;;;4891527;29;20190;-85
2023/12/15 10:32:05;;;;;;;2.28;1.45;;;17.30;60.10;;;;;;4922968;29;20177;-85
2023/12/15 10:34:35;;;;;;;1.70;1.30;;;17.40;59.80;;;;;;4936286;29;20174;-85
2023/12/15 10:37:01;;;;;;;1.65;1.27;;;17.40;59.80;;;;;;4908839;29;20189;-86
2023/12/15 10:39:27;;;;;;;2.20;1.63;;;17.30;60.10;;;;;;4923278;29;20170;-86
2023/12/15 10:41:57;;;;;;;1.50;1.40;;;17.30;60.20;;;;;;4929938;29;20185;-85
2023/12/15 10:44:24;;;;;;;1.50;1.30;;;17.40;60.20;;;;;;4907052;29;20205;-81
2023/12/15 10:46:51;;;;;;;1.52;1.35;;;17.40;60.20;;;;;;4937080;29;20162;-83
2023/12/15 10:49:17;;;;;;;1.88;1.40;;;17.30;60.20;;;;;;4891280;29;20177;-85
2023/12/15 10:51:47;;;;;;;1.92;1.40;;;17.40;60.00;;;;;;4906083;29;20984;-84
2023/12/15 10:54:18;;;;;;;3.13;1.52;;;17.40;59.80;;;;;;4926116;29;20169;-83
2023/12/15 10:56:51;;;;;;;1.50;1.35;;;17.40;60.20;;;;;;4891092;29;20200;-85
2023/12/15 10:59:18;;;;;;;2.63;1.30;;;17.40;60.30;;;;;;4894693;29;20540;-84
2023/12/15 11:01:46;;;;;;;1.92;1.50;;;17.40;60.30;;;;;;4907971;29;20218;-86
2023/12/15 11:04:38;;;;;;;1.70;1.38;;;17.40;60.00;;;;;;4892614;29;20193;-84
2023/12/15 11:07:07;;;;;;;1.52;1.30;;;17.40;59.80;;;;;;4929067;29;20213;-86
2023/12/15 11:09:54;;;;;;;1.90;1.58;;;17.40;59.60;;;;;;4914216;29;20171;-87
2023/12/15 11:12:41;;;;;;;2.05;1.33;;;17.40;59.80;;;;;;4873789;29;20237;-87
2023/12/15 11:15:15;;;;;;;1.48;1.33;;;17.40;59.70;;;;;;4843183;29;20196;-86
2023/12/15 11:17:55;;;;;;;1.67;1.23;;;17.40;60.10;;;;;;4857806;29;20189;-86
2023/12/15 11:20:42;;;;;;;2.13;1.40;;;17.40;60.10;;;;;;4812414;29;20217;-85
2023/12/15 11:23:15;;;;;;;1.63;1.30;;;17.40;60.20;;;;;;4823735;29;20197;-85
2023/12/15 11:25:59;;;;;;;1.67;1.33;;;17.50;59.80;;;;;;4821845;29;20174;-85
2023/12/15 11:28:30;;;;;;;0.98;0.90;;;17.40;60.70;;;;;;4827705;29;20280;-85
2023/12/15 11:32:02;;;;;;;1.75;1.30;;;17.40;60.40;;;;;;4819987;29;20396;-86
2023/12/15 11:34:39;;;;;;;1.38;1.20;;;17.40;61.10;;;;;;4811212;29;20665;-85
2023/12/15 11:37:33;;;;;;;2.03;1.48;;;17.40;59.30;;;;;;4814457;29;20186;-86
2023/12/15 11:40:00;;;;;;;2.58;1.60;;;17.40;60.00;;;;;;4808950;29;20242;-86
2023/12/15 11:42:52;;;;;;;2.80;1.60;;;17.50;59.10;;;;;;4832757;29;20682;-87
2023/12/15 11:45:31;;;;;;;3.63;2.03;;;17.40;60.20;;;;;;4795224;29;20199;-86
2023/12/15 11:48:57;;;;;;;3.95;1.85;;;17.40;61.70;;;;;;4777206;30;20192;-85
2023/12/15 11:51:10;;;;;;;4.80;2.00;;;17.40;60.10;;;;;;4751532;30;20192;-84
2023/12/15 11:54:22;;;;;;;4.82;2.10;;;17.40;60.50;;;;;;4756800;30;20189;-85
2023/12/15 11:57:44;;;;;;;4.82;1.60;;;17.40;62.90;;;;;;4756382;30;20192;-85
2023/12/15 11:59:44;;;;;;;3.38;1.75;;;17.30;61.50;;;;;;4740118;30;20225;-86
2023/12/15 12:05:39;;;;;;;6.72;1.92;;;17.30;62.60;;;;;;4706179;30;20223;-84
2023/12/15 12:08:11;;;;;;;2.35;1.92;;;17.30;62.00;;;;;;4678030;30;20195;-83
2023/12/15 12:10:50;;;;;;;2.78;1.80;;;17.40;61.00;;;;;;4693012;30;20199;-84
2023/12/15 12:13:17;;;;;;;3.72;2.03;;;17.40;62.20;;;;;;4691930;30;20199;-84
2023/12/15 12:15:57;;;;;;;2.53;1.50;;;17.40;61.10;;;;;;4692493;30;20202;-85
2023/12/15 12:18:36;;;;;;;3.58;1.50;;;17.40;62.70;;;;;;4677405;30;20202;-85
2023/12/15 12:21:14;;;;;;;6.15;1.48;;;17.30;62.40;;;;;;4675581;30;20238;-84
2023/12/15 12:23:41;;;;;;;1.60;1.40;;;17.30;63.00;;;;;;4744323;30;20284;-86
2023/12/15 12:26:15;;;;;;;2.45;1.58;;;17.40;64.10;;;;;;4724774;30;20194;-84
2023/12/15 12:28:51;;;;;;;3.33;1.40;;;17.30;63.30;;;;;;4706814;30;20196;-84
2023/12/15 12:31:26;;;;;;;2.30;1.60;;;17.30;63.00;;;;;;4690967;30;20196;-85
2023/12/15 12:33:55;;;;;;;2.60;1.73;;;17.30;63.50;;;;;;4696352;30;20202;-86
2023/12/15 12:36:28;;;;;;;2.67;1.60;;;17.30;62.80;;;;;;4714563;30;20201;-86
2023/12/15 12:39:00;;;;;;;2.92;1.90;;;17.30;62.40;;;;;;4704853;30;20690;-86
2023/12/15 12:41:28;;;;;;;2.58;1.50;;;17.30;62.50;;;;;;4716837;30;20233;-86
2023/12/15 12:44:08;;;;;;;2.03;1.50;;;17.30;62.00;;;;;;4765066;30;20318;-85
2023/12/15 12:46:39;;;;;;;4.30;1.42;;;17.30;62.10;;;;;;4783103;30;20197;-86
2023/12/15 12:49:13;;;;;;;1.70;1.42;;;17.30;62.00;;;;;;4781453;30;20573;-84
2023/12/15 12:51:47;;;;;;;3.45;1.90;;;17.30;62.10;;;;;;4767014;30;20191;-85
2023/12/15 12:54:13;;;;;;;2.30;1.60;;;17.30;62.40;;;;;;4765108;30;20188;-85
2023/12/15 12:56:40;;;;;;;3.55;1.75;;;17.30;62.40;;;;;;4781104;30;20215;-85
2023/12/15 12:59:07;;;;;;;1.63;1.23;;;17.30;62.00;;;;;;4776272;30;20204;-85
2023/12/15 13:01:33;;;;;;;3.03;1.70;;;17.40;62.50;;;;;;4796338;29;20227;-85
2023/12/15 13:03:59;;;;;;;1.50;1.35;;;17.30;63.30;;;;;;4803917;29;20189;-86
2023/12/15 13:06:46;;;;;;;2.10;1.60;;;17.30;62.90;;;;;;4874216;29;20229;-85
2023/12/15 13:09:17;;;;;;;3.03;1.20;;;17.30;62.30;;;;;;4894485;29;20728;-85
2023/12/15 13:12:24;;;;;;;2.70;1.70;;;17.30;62.10;;;;;;4888064;29;20194;-85
2023/12/15 13:29:03;;;;;;;3.03;1.77;;;17.40;60.50;;;;;;4882557;29;20264;-84
2023/12/15 13:31:36;;;;;;;2.15;1.50;;;17.40;61.50;;;;;;4891622;29;20179;-84
2023/12/15 13:34:03;;;;;;;3.22;1.58;;;17.40;61.90;;;;;;4860695;29;20190;-84
2023/12/15 13:36:30;;;;;;;1.60;1.38;;;17.40;62.10;;;;;;4858054;29;20183;-85
2023/12/15 13:39:00;;;;;;;2.17;1.40;;;17.40;62.40;;;;;;4874325;29;20247;-84
2023/12/15 13:41:26;;;;;;;3.30;1.52;;;17.40;62.10;;;;;;4856667;29;20215;-84
2023/12/15 13:43:52;;;;;;;2.22;1.60;;;17.40;62.20;;;;;;4875985;29;20175;-85
2023/12/15 13:46:21;;;;;;;2.00;1.35;;;17.50;61.80;;;;;;4900874;29;20182;-84